Van Nuys, CA (91409)

9:50 AM PDT on September 21, 2014 (GMT -0700)
Hesby Oaks | Change Station
CLOSE
Current Station
Personal Weather Station
Location: Encino, CA
Elevation: 705 ft
Nearby Weather Stations

Elev 705 ft 34.16 °N, 118.48 °W | Updated 3 seconds ago

Overcast
Overcast
66.4 °F
Feels Like 66.4 °F
N
0.0
Wind Variable Wind from SSW
Gusts 0.0 mph

Today
High -- | Low -- °F
--% Chance of Precip.
Yesterday
High -- | Low -- °F
Precip. -- in
6:41 AM 6:51 PM
Waning Crescent, 6% visible
Pressure 29.99 in
Visibility 10.0 miles
Clouds Overcast 2200 ft
Dew Point 62 °F
Humidity 87%
Rainfall 0.00 in
Snow Depth 1 in , 0 in , 0 in
UV 0.0 out of 12
Pollen 7.20 out of 12
Ozone Good
PM2.5 Moderate
Flu Activity Not available.
METAR KVNY 211551Z 00000KT 10SM OVC022 19/14 A3001 RMK AO2 SLP154 T01940144

More Conditions Fewer Conditions

Pressure 29.99 in
Visibility 10.0 miles
Clouds Overcast 2200 ft
Dew Point 62 °F
Humidity 87%
Rainfall 0.00 in
Snow Depth 1 in , 0 in , 0 in
UV 0.0 out of 12
Pollen 7.20 out of 12
Ozone Good
PM2.5 Moderate
Flu Activity Not available.
METAR KVNY 211551Z 00000KT 10SM OVC022 19/14 A3001 RMK AO2 SLP154 T01940144

More Conditions Fewer Conditions

10-Day Weather Forecast

Almanac

Astronomy

Sep. 21, 2014 Rise Set
Actual Time 6:41 AM PDT 6:51 PM PDT
Civil Twilight 6:16 AM PDT 7:16 PM PDT
Nautical Twilight 5:47 AM PDT 7:46 PM PDT
Astronomical Twilight 5:17 AM PDT 8:15 PM PDT
Moon 4:24 AM PDT 5:26 PM PDT
Length of Visible Light 13h 00m
Length of Day
12h 10m
Tomorrow will be 2m 6s shorter.
Waning Crescent, 6% of the Moon is Illuminated
Today
Waning Crescent
Sep 24
New
Oct 1
First Quarter
Oct 8
Full
Oct 15
Last Quarter

Today's Extremes

State Highs State Lows

Community

WunderPhotos

Upload Photos

1,755,186 photos uploaded!

Nearby

Air Quality

  Air Quality AQ Index Pollutant
Yesterday Moderate
PM2.5
Yesterday Good
OZONE
Current Moderate
PM2.5
Current Good
OZONE
Sunday Moderate
OZONE
Sunday Good
PM10
Sunday Good
CO
Sunday Good
NO2

Snow Depth

Station Depth Elevation
Monitor Pass 1 in 8350 ft
Ebbetts Pass 0 in 8700 ft
Forestdale Creek 0 in 8029 ft
Leavitt Lake 1 in 9400 ft
Sonora Pass 0 in 8800 ft

Earthquake Activity

City Distance Mag. Time & Date
Inyokern, California 132 miles 3.1 5:33 PM PDT
2014-09-19
Aguanga, California 110 miles 2.5 1:38 AM PDT
2014-09-19
Corcoran, California 144 miles 2.9 3:59 PM PDT
2014-09-18
Minimum magnitude displayed is 2.5.

Coastal Water Temperatures

Place Temperature
Santa Monica Pier 68.0 °F
Los Angeles, CA 66.9 °F
La Jolla, CA 72.0 °F

Nearby Weather Stations